Terminal Aerodrome Forecast
Issued by NWS Norman, OK

Home | Current Version | Previous Version | Text Only | Print | Product List | Glossary On
Versions: 1 2 3 4 5 6 7 8 9 10 11 12 13 14 15 16 17 18 19 20 21 22 23 24 25 26 27 28
000
FTUS44 KOUN 151737
TAFOKC
TAF
KOKC 151737Z 1518/1618 18016G24KT P6SM SCT030 BKN250
     FM160000 15011KT P6SM BKN120 OVC250 PROB30 1603/1609 -TSRA
      BKN030CB
     FM160900 18005KT P6SM SCT050 BKN250=

USA.gov is the U.S. government's official web portal to all federal, state and local government web resources and services.